Pep, Texas
Current Conditions -  °F | °C
As of 9:53 AM on Sunday 23 Nov 2014 (Local Time) from KLBB Reporting Station
Clear Clear  
Wind Chill: 17°   Ceiling: Unl
Heat Index: 17°   Visibility: 7mi
Dew Point: -6°   Wind: 32mph
Humidity: 21%   Direction: 290°WNW
Pressure: 29.58"   Gusts: 45mph
Location:  33.81°N, 102.56°W
Report Text: KLBB 231553Z 29028G39KT 7SM CLR 17/M06 A2958 RMK AO2 PK WND 30039/1553 SLP991 BLDU ALQDS T01671061
Loading
Personal Weather Stations






























Interactive Weather Map New forecast layout! Learn more

10-Day Weather Forecast

Advertisements
Track Severe Weather on mobile